sensor_id;sensor_type;location;lat;lon;timestamp;pressure;altitude;pressure_sealevel;temperature;humidity
9059;BME280;4564;42.034;25.834;2023-05-21T00:02:18;99866.28;;;15.59;100.00
9059;BME280;4564;42.034;25.834;2023-05-21T00:04:45;99872.94;;;15.63;100.00
9059;BME280;4564;42.034;25.834;2023-05-21T00:07:12;99867.94;;;15.60;100.00
9059;BME280;4564;42.034;25.834;2023-05-21T00:09:39;99863.53;;;15.59;100.00
9059;BME280;4564;42.034;25.834;2023-05-21T00:12:06;99871.03;;;15.45;100.00
9059;BME280;4564;42.034;25.834;2023-05-21T00:14:35;99869.47;;;15.37;100.00
9059;BME280;4564;42.034;25.834;2023-05-21T00:17:01;99879.47;;;15.43;100.00
9059;BME280;4564;42.034;25.834;2023-05-21T00:19:28;99868.53;;;15.43;100.00
9059;BME280;4564;42.034;25.834;2023-05-21T00:21:56;99863.28;;;15.42;100.00
9059;BME280;4564;42.034;25.834;2023-05-21T00:24:26;99868.53;;;15.43;100.00
9059;BME280;4564;42.034;25.834;2023-05-21T00:26:53;99876.28;;;15.46;100.00
9059;BME280;4564;42.034;25.834;2023-05-21T00:29:19;99866.78;;;15.49;100.00
9059;BME280;4564;42.034;25.834;2023-05-21T00:31:47;99870.81;;;15.46;100.00
9059;BME280;4564;42.034;25.834;2023-05-21T00:34:15;99869.53;;;15.31;100.00
9059;BME280;4564;42.034;25.834;2023-05-21T00:36:43;99871.81;;;15.16;100.00
9059;BME280;4564;42.034;25.834;2023-05-21T00:39:09;99878.63;;;15.06;100.00
9059;BME280;4564;42.034;25.834;2023-05-21T00:41:36;99871.56;;;14.99;100.00
9059;BME280;4564;42.034;25.834;2023-05-21T00:44:04;99867.38;;;14.96;100.00
9059;BME280;4564;42.034;25.834;2023-05-21T00:46:31;99872.00;;;14.96;100.00
9059;BME280;4564;42.034;25.834;2023-05-21T00:48:59;99865.34;;;14.92;100.00
9059;BME280;4564;42.034;25.834;2023-05-21T00:51:26;99868.75;;;14.87;100.00
9059;BME280;4564;42.034;25.834;2023-05-21T00:53:54;99867.28;;;14.85;100.00
9059;BME280;4564;42.034;25.834;2023-05-21T00:56:21;99861.66;;;14.80;100.00
9059;BME280;4564;42.034;25.834;2023-05-21T00:58:48;99854.09;;;14.82;100.00
9059;BME280;4564;42.034;25.834;2023-05-21T01:01:16;99858.50;;;14.83;100.00
9059;BME280;4564;42.034;25.834;2023-05-21T01:03:43;99855.72;;;14.89;100.00
9059;BME280;4564;42.034;25.834;2023-05-21T01:06:11;99848.56;;;14.88;100.00
9059;BME280;4564;42.034;25.834;2023-05-21T01:08:38;99856.13;;;14.86;100.00
9059;BME280;4564;42.034;25.834;2023-05-21T01:11:06;99849.84;;;14.86;100.00
9059;BME280;4564;42.034;25.834;2023-05-21T01:13:34;99838.06;;;14.85;100.00
9059;BME280;4564;42.034;25.834;2023-05-21T01:16:02;99849.84;;;14.86;100.00
9059;BME280;4564;42.034;25.834;2023-05-21T01:18:30;99846.06;;;14.87;100.00
9059;BME280;4564;42.034;25.834;2023-05-21T01:20:59;99838.53;;;14.82;100.00
9059;BME280;4564;42.034;25.834;2023-05-21T01:23:27;99841.91;;;14.84;100.00
9059;BME280;4564;42.034;25.834;2023-05-21T01:25:54;99832.09;;;14.77;100.00
9059;BME280;4564;42.034;25.834;2023-05-21T01:28:20;99837.34;;;14.78;100.00
9059;BME280;4564;42.034;25.834;2023-05-21T01:30:47;99835.72;;;14.70;100.00
9059;BME280;4564;42.034;25.834;2023-05-21T01:33:17;99834.28;;;14.68;100.00
9059;BME280;4564;42.034;25.834;2023-05-21T01:35:46;99842.47;;;14.68;100.00
9059;BME280;4564;42.034;25.834;2023-05-21T01:38:16;99835.84;;;14.57;100.00
9059;BME280;4564;42.034;25.834;2023-05-21T01:40:49;99837.50;;;14.58;100.00
9059;BME280;4564;42.034;25.834;2023-05-21T01:43:18;99834.63;;;14.53;100.00
9059;BME280;4564;42.034;25.834;2023-05-21T01:45:45;99824.16;;;14.50;100.00
9059;BME280;4564;42.034;25.834;2023-05-21T01:48:12;99827.94;;;14.49;100.00
9059;BME280;4564;42.034;25.834;2023-05-21T01:50:41;99827.94;;;14.49;100.00
9059;BME280;4564;42.034;25.834;2023-05-21T01:53:09;99826.03;;;14.50;100.00
9059;BME280;4564;42.034;25.834;2023-05-21T01:55:35;99827.47;;;14.52;100.00
9059;BME280;4564;42.034;25.834;2023-05-21T01:58:07;99818.22;;;14.53;100.00
9059;BME280;4564;42.034;25.834;2023-05-21T02:00:34;99812.94;;;14.58;100.00
9059;BME280;4564;42.034;25.834;2023-05-21T02:03:01;99815.06;;;14.56;100.00
9059;BME280;4564;42.034;25.834;2023-05-21T02:05:28;99810.66;;;14.55;100.00
9059;BME280;4564;42.034;25.834;2023-05-21T02:07:54;99817.38;;;14.53;100.00
9059;BME280;4564;42.034;25.834;2023-05-21T02:10:21;99823.25;;;14.56;100.00
9059;BME280;4564;42.034;25.834;2023-05-21T02:12:47;99821.78;;;14.54;100.00
9059;BME280;4564;42.034;25.834;2023-05-21T02:15:15;99832.94;;;14.52;100.00
9059;BME280;4564;42.034;25.834;2023-05-21T02:17:43;99830.88;;;14.48;100.00
9059;BME280;4564;42.034;25.834;2023-05-21T02:20:12;99826.72;;;14.45;100.00
9059;BME280;4564;42.034;25.834;2023-05-21T02:22:39;99826.47;;;14.47;100.00
9059;BME280;4564;42.034;25.834;2023-05-21T02:25:06;99826.25;;;14.48;100.00
9059;BME280;4564;42.034;25.834;2023-05-21T02:27:33;99823.69;;;14.53;100.00
9059;BME280;4564;42.034;25.834;2023-05-21T02:30:01;99825.38;;;14.54;100.00
9059;BME280;4564;42.034;25.834;2023-05-21T02:32:29;99825.38;;;14.54;100.00
9059;BME280;4564;42.034;25.834;2023-05-21T02:34:56;99823.69;;;14.53;100.00
9059;BME280;4564;42.034;25.834;2023-05-21T02:37:23;99830.66;;;14.49;100.00
9059;BME280;4564;42.034;25.834;2023-05-21T02:39:51;99831.72;;;14.48;100.00
9059;BME280;4564;42.034;25.834;2023-05-21T02:42:18;99823.81;;;14.40;100.00
9059;BME280;4564;42.034;25.834;2023-05-21T02:44:45;99827.16;;;14.42;100.00
9059;BME280;4564;42.034;25.834;2023-05-21T02:47:11;99832.84;;;14.41;100.00
9059;BME280;4564;42.034;25.834;2023-05-21T02:49:39;99823.41;;;14.37;100.00
9059;BME280;4564;42.034;25.834;2023-05-21T02:52:06;99837.34;;;14.28;100.00
9059;BME280;4564;42.034;25.834;2023-05-21T02:54:32;99830.19;;;14.27;100.00
9059;BME280;4564;42.034;25.834;2023-05-21T02:56:59;99831.19;;;14.33;100.00
9059;BME280;4564;42.034;25.834;2023-05-21T02:59:25;99839.59;;;14.38;100.00
9059;BME280;4564;42.034;25.834;2023-05-21T03:01:52;99845.66;;;14.40;100.00
9059;BME280;4564;42.034;25.834;2023-05-21T03:04:19;99841.44;;;14.44;100.00
9059;BME280;4564;42.034;25.834;2023-05-21T03:06:47;99843.53;;;14.42;100.00
9059;BME280;4564;42.034;25.834;2023-05-21T03:09:14;99839.38;;;14.40;100.00
9059;BME280;4564;42.034;25.834;2023-05-21T03:11:41;99839.97;;;14.42;100.00
9059;BME280;4564;42.034;25.834;2023-05-21T03:14:07;99840.13;;;14.47;100.00
9059;BME280;4564;42.034;25.834;2023-05-21T03:16:35;99838.59;;;14.57;100.00
9059;BME280;4564;42.034;25.834;2023-05-21T03:19:02;99827.34;;;14.65;100.00
9059;BME280;4564;42.034;25.834;2023-05-21T03:21:28;99831.19;;;14.83;100.00
9059;BME280;4564;42.034;25.834;2023-05-21T03:23:57;99826.03;;;14.93;100.00
9059;BME280;4564;42.034;25.834;2023-05-21T03:26:24;99827.38;;;15.02;100.00
9059;BME280;4564;42.034;25.834;2023-05-21T03:28:51;99823.59;;;15.03;100.00
9059;BME280;4564;42.034;25.834;2023-05-21T03:31:18;99841.19;;;15.07;100.00
9059;BME280;4564;42.034;25.834;2023-05-21T03:33:45;99837.78;;;15.11;100.00
9059;BME280;4564;42.034;25.834;2023-05-21T03:36:11;99842.59;;;15.16;100.00
9059;BME280;4564;42.034;25.834;2023-05-21T03:38:38;99835.03;;;15.30;100.00
9059;BME280;4564;42.034;25.834;2023-05-21T03:41:06;99834.06;;;15.42;100.00
9059;BME280;4564;42.034;25.834;2023-05-21T03:43:33;99831.78;;;15.58;100.00
9059;BME280;4564;42.034;25.834;2023-05-21T03:46:00;99833.88;;;15.74;100.00
9059;BME280;4564;42.034;25.834;2023-05-21T03:48:27;99840.50;;;15.96;100.00
9059;BME280;4564;42.034;25.834;2023-05-21T03:50:53;99832.56;;;16.18;100.00
9059;BME280;4564;42.034;25.834;2023-05-21T03:53:21;99841.06;;;16.40;100.00
9059;BME280;4564;42.034;25.834;2023-05-21T03:55:47;99839.97;;;16.52;100.00
9059;BME280;4564;42.034;25.834;2023-05-21T03:58:20;99847.28;;;16.70;100.00
9059;BME280;4564;42.034;25.834;2023-05-21T04:00:47;99846.69;;;16.91;100.00
9059;BME280;4564;42.034;25.834;2023-05-21T04:03:14;99845.72;;;17.09;100.00
9059;BME280;4564;42.034;25.834;2023-05-21T04:05:41;99850.19;;;17.38;99.34
9059;BME280;4564;42.034;25.834;2023-05-21T04:08:07;99845.97;;;17.59;97.99
9059;BME280;4564;42.034;25.834;2023-05-21T04:10:34;99850.22;;;17.78;96.60
9059;BME280;4564;42.034;25.834;2023-05-21T04:13:01;99850.06;;;17.85;95.78
9059;BME280;4564;42.034;25.834;2023-05-21T04:15:29;99850.34;;;18.00;95.53
9059;BME280;4564;42.034;25.834;2023-05-21T04:17:55;99851.50;;;18.04;94.71
9059;BME280;4564;42.034;25.834;2023-05-21T04:20:22;99847.97;;;18.20;94.91
9059;BME280;4564;42.034;25.834;2023-05-21T04:22:49;99848.66;;;18.27;93.33
9059;BME280;4564;42.034;25.834;2023-05-21T04:25:15;99854.38;;;18.42;93.41
9059;BME280;4564;42.034;25.834;2023-05-21T04:27:42;99860.72;;;18.43;92.95
9059;BME280;4564;42.034;25.834;2023-05-21T04:30:12;99865.16;;;18.44;93.38
9059;BME280;4564;42.034;25.834;2023-05-21T04:32:40;99861.97;;;18.52;92.93
9059;BME280;4564;42.034;25.834;2023-05-21T04:35:10;99865.00;;;18.51;92.63
9059;BME280;4564;42.034;25.834;2023-05-21T04:37:36;99866.38;;;18.53;92.97
9059;BME280;4564;42.034;25.834;2023-05-21T04:40:06;99864.16;;;18.50;93.13
9059;BME280;4564;42.034;25.834;2023-05-21T04:42:33;99869.47;;;18.40;93.79
9059;BME280;4564;42.034;25.834;2023-05-21T04:45:00;99872.53;;;18.27;93.80
9059;BME280;4564;42.034;25.834;2023-05-21T04:47:27;99862.13;;;18.29;93.87
9059;BME280;4564;42.034;25.834;2023-05-21T04:49:55;99862.69;;;18.31;94.11
9059;BME280;4564;42.034;25.834;2023-05-21T04:52:23;99864.97;;;18.34;94.00
9059;BME280;4564;42.034;25.834;2023-05-21T04:54:51;99864.13;;;18.33;94.11
9059;BME280;4564;42.034;25.834;2023-05-21T04:57:18;99870.47;;;18.34;94.45
9059;BME280;4564;42.034;25.834;2023-05-21T04:59:45;99874.78;;;18.46;93.34
9059;BME280;4564;42.034;25.834;2023-05-21T05:02:13;99865.72;;;18.29;93.67
9059;BME280;4564;42.034;25.834;2023-05-21T05:04:39;99872.38;;;18.33;93.93
9059;BME280;4564;42.034;25.834;2023-05-21T05:07:09;99865.97;;;18.28;94.11
9059;BME280;4564;42.034;25.834;2023-05-21T05:09:36;99873.44;;;18.16;94.08
9059;BME280;4564;42.034;25.834;2023-05-21T05:12:03;99873.44;;;18.16;95.15
9059;BME280;4564;42.034;25.834;2023-05-21T05:14:29;99871.56;;;18.04;96.39
9059;BME280;4564;42.034;25.834;2023-05-21T05:16:56;99867.06;;;17.98;97.36
9059;BME280;4564;42.034;25.834;2023-05-21T05:19:24;99869.59;;;17.60;100.00
9059;BME280;4564;42.034;25.834;2023-05-21T05:21:51;99877.97;;;17.53;100.00
9059;BME280;4564;42.034;25.834;2023-05-21T05:24:19;99877.59;;;17.50;100.00
9059;BME280;4564;42.034;25.834;2023-05-21T05:26:46;99872.72;;;17.52;100.00
9059;BME280;4564;42.034;25.834;2023-05-21T05:29:12;99859.91;;;17.69;100.00
9059;BME280;4564;42.034;25.834;2023-05-21T05:31:39;99868.13;;;17.81;100.00
9059;BME280;4564;42.034;25.834;2023-05-21T05:34:06;99876.19;;;17.87;100.00
9059;BME280;4564;42.034;25.834;2023-05-21T05:36:32;99878.84;;;17.82;100.00
9059;BME280;4564;42.034;25.834;2023-05-21T05:38:59;99877.84;;;17.88;100.00
9059;BME280;4564;42.034;25.834;2023-05-21T05:41:27;99880.31;;;17.73;99.98
9059;BME280;4564;42.034;25.834;2023-05-21T05:43:53;99882.50;;;17.48;100.00
9059;BME280;4564;42.034;25.834;2023-05-21T05:46:20;99887.41;;;17.34;100.00
9059;BME280;4564;42.034;25.834;2023-05-21T05:48:46;99882.75;;;17.35;100.00
9059;BME280;4564;42.034;25.834;2023-05-21T05:51:13;99874.44;;;17.30;100.00
9059;BME280;4564;42.034;25.834;2023-05-21T05:53:41;99876.50;;;17.11;100.00
9059;BME280;4564;42.034;25.834;2023-05-21T05:56:07;99882.09;;;17.04;100.00
9059;BME280;4564;42.034;25.834;2023-05-21T05:58:35;99872.53;;;17.18;100.00
9059;BME280;4564;42.034;25.834;2023-05-21T06:01:02;99875.72;;;17.39;100.00
9059;BME280;4564;42.034;25.834;2023-05-21T06:03:28;99880.22;;;17.56;100.00
9059;BME280;4564;42.034;25.834;2023-05-21T06:05:55;99884.75;;;17.63;100.00
9059;BME280;4564;42.034;25.834;2023-05-21T06:08:22;99877.56;;;17.73;100.00
9059;BME280;4564;42.034;25.834;2023-05-21T06:10:48;99882.81;;;17.75;100.00
9059;BME280;4564;42.034;25.834;2023-05-21T06:13:15;99885.91;;;17.78;99.89
9059;BME280;4564;42.034;25.834;2023-05-21T06:15:43;99883.84;;;17.85;99.81
9059;BME280;4564;42.034;25.834;2023-05-21T06:18:10;99877.84;;;17.88;100.00
9059;BME280;4564;42.034;25.834;2023-05-21T06:20:36;99878.09;;;17.87;99.13
9059;BME280;4564;42.034;25.834;2023-05-21T06:23:03;99864.97;;;17.89;99.58
9059;BME280;4564;42.034;25.834;2023-05-21T06:25:31;99871.06;;;17.91;99.88
9059;BME280;4564;42.034;25.834;2023-05-21T06:27:58;99867.06;;;17.98;99.42
9059;BME280;4564;42.034;25.834;2023-05-21T06:30:24;99877.16;;;18.10;99.55
9059;BME280;4564;42.034;25.834;2023-05-21T06:32:52;99869.59;;;18.17;98.19
9059;BME280;4564;42.034;25.834;2023-05-21T06:35:19;99878.44;;;18.19;96.99
9059;BME280;4564;42.034;25.834;2023-05-21T06:37:46;99878.44;;;18.19;97.89
9059;BME280;4564;42.034;25.834;2023-05-21T06:40:13;99880.91;;;18.20;97.63
9059;BME280;4564;42.034;25.834;2023-05-21T06:42:39;99874.13;;;18.23;97.35
9059;BME280;4564;42.034;25.834;2023-05-21T06:45:06;99881.38;;;18.29;97.31
9059;BME280;4564;42.034;25.834;2023-05-21T06:47:33;99877.28;;;18.31;97.22
9059;BME280;4564;42.034;25.834;2023-05-21T06:50:01;99876.28;;;18.37;97.41
9059;BME280;4564;42.034;25.834;2023-05-21T06:52:28;99876.13;;;18.44;96.62
9059;BME280;4564;42.034;25.834;2023-05-21T06:54:55;99880.75;;;18.55;96.32
9059;BME280;4564;42.034;25.834;2023-05-21T06:57:22;99889.25;;;18.70;95.88
9059;BME280;4564;42.034;25.834;2023-05-21T06:59:49;99880.66;;;18.83;95.58
9059;BME280;4564;42.034;25.834;2023-05-21T07:02:15;99887.31;;;18.88;95.09
9059;BME280;4564;42.034;25.834;2023-05-21T07:04:42;99885.81;;;18.97;94.83
9059;BME280;4564;42.034;25.834;2023-05-21T07:07:10;99880.31;;;18.97;94.15
9059;BME280;4564;42.034;25.834;2023-05-21T07:09:36;99883.47;;;19.05;94.06
9059;BME280;4564;42.034;25.834;2023-05-21T07:12:03;99881.19;;;19.19;93.04
9059;BME280;4564;42.034;25.834;2023-05-21T07:14:30;99880.38;;;19.40;91.36
9059;BME280;4564;42.034;25.834;2023-05-21T07:16:56;99873.09;;;19.51;91.06
9059;BME280;4564;42.034;25.834;2023-05-21T07:19:23;99876.88;;;19.66;90.23
9059;BME280;4564;42.034;25.834;2023-05-21T07:21:49;99878.22;;;19.86;89.65
9059;BME280;4564;42.034;25.834;2023-05-21T07:24:17;99870.56;;;19.93;88.45
9059;BME280;4564;42.034;25.834;2023-05-21T07:26:44;99867.31;;;19.96;89.18
9059;BME280;4564;42.034;25.834;2023-05-21T07:29:11;99862.22;;;20.09;88.88
9059;BME280;4564;42.034;25.834;2023-05-21T07:31:37;99873.22;;;20.31;87.21
9059;BME280;4564;42.034;25.834;2023-05-21T07:34:04;99871.91;;;20.39;87.24
9059;BME280;4564;42.034;25.834;2023-05-21T07:36:30;99871.69;;;20.45;87.67
9059;BME280;4564;42.034;25.834;2023-05-21T07:38:57;99873.88;;;20.43;87.36
9059;BME280;4564;42.034;25.834;2023-05-21T07:41:25;99875.00;;;20.47;87.01
9059;BME280;4564;42.034;25.834;2023-05-21T07:43:52;99873.38;;;20.51;87.25
9059;BME280;4564;42.034;25.834;2023-05-21T07:46:18;99877.34;;;20.61;86.67
9059;BME280;4564;42.034;25.834;2023-05-21T07:48:45;99879.81;;;20.62;85.62
9059;BME280;4564;42.034;25.834;2023-05-21T07:51:12;99888.84;;;20.52;86.59
9059;BME280;4564;42.034;25.834;2023-05-21T07:53:39;99885.16;;;20.74;86.86
9059;BME280;4564;42.034;25.834;2023-05-21T07:56:06;99894.88;;;20.81;85.90
9059;BME280;4564;42.034;25.834;2023-05-21T07:58:34;99890.16;;;20.77;85.53
9059;BME280;4564;42.034;25.834;2023-05-21T08:01:00;99889.53;;;20.70;84.39
9059;BME280;4564;42.034;25.834;2023-05-21T08:03:28;99883.16;;;20.64;84.37
9059;BME280;4564;42.034;25.834;2023-05-21T08:05:55;99880.09;;;20.61;84.61
9059;BME280;4564;42.034;25.834;2023-05-21T08:08:22;99880.59;;;20.58;85.96
9059;BME280;4564;42.034;25.834;2023-05-21T08:10:48;99880.34;;;20.59;85.82
9059;BME280;4564;42.034;25.834;2023-05-21T08:13:15;99880.38;;;20.64;86.25
9059;BME280;4564;42.034;25.834;2023-05-21T08:15:43;99888.41;;;20.66;86.85
9059;BME280;4564;42.034;25.834;2023-05-21T08:18:10;99878.59;;;20.80;86.87
9059;BME280;4564;42.034;25.834;2023-05-21T08:20:37;99891.50;;;20.74;87.89
9059;BME280;4564;42.034;25.834;2023-05-21T08:23:03;99886.13;;;20.94;87.29
9059;BME280;4564;42.034;25.834;2023-05-21T08:25:30;99886.66;;;20.91;87.87
9059;BME280;4564;42.034;25.834;2023-05-21T08:27:56;99888.13;;;20.99;87.50
9059;BME280;4564;42.034;25.834;2023-05-21T08:30:23;99888.63;;;20.96;88.02
9059;BME280;4564;42.034;25.834;2023-05-21T08:32:51;99888.09;;;20.94;88.25
9059;BME280;4564;42.034;25.834;2023-05-21T08:35:19;99897.22;;;21.00;88.67
9059;BME280;4564;42.034;25.834;2023-05-21T08:37:45;99892.03;;;21.08;86.18
9059;BME280;4564;42.034;25.834;2023-05-21T08:40:12;99892.00;;;21.03;87.43
9059;BME280;4564;42.034;25.834;2023-05-21T08:42:39;99887.56;;;21.02;87.99
9059;BME280;4564;42.034;25.834;2023-05-21T08:45:07;99897.78;;;21.02;87.47
9059;BME280;4564;42.034;25.834;2023-05-21T08:47:36;99896.41;;;20.99;88.56
9059;BME280;4564;42.034;25.834;2023-05-21T08:50:04;99893.63;;;20.99;88.51
9059;BME280;4564;42.034;25.834;2023-05-21T08:52:33;99898.91;;;21.06;85.50
9059;BME280;4564;42.034;25.834;2023-05-21T08:55:00;99897.56;;;21.08;85.99
9059;BME280;4564;42.034;25.834;2023-05-21T08:57:27;99893.09;;;21.02;86.89
9059;BME280;4564;42.034;25.834;2023-05-21T08:59:55;99892.91;;;21.14;86.79
9059;BME280;4564;42.034;25.834;2023-05-21T09:02:22;99891.88;;;21.20;87.48
9059;BME280;4564;42.034;25.834;2023-05-21T09:04:49;99886.59;;;21.18;86.92
9059;BME280;4564;42.034;25.834;2023-05-21T09:07:22;99895.19;;;21.27;86.08
9059;BME280;4564;42.034;25.834;2023-05-21T09:09:52;99889.25;;;21.50;84.59
9059;BME280;4564;42.034;25.834;2023-05-21T09:12:20;99886.75;;;21.49;83.92
9059;BME280;4564;42.034;25.834;2023-05-21T09:14:47;99886.19;;;21.42;84.20
9059;BME280;4564;42.034;25.834;2023-05-21T09:17:14;99881.78;;;21.46;83.13
9059;BME280;4564;42.034;25.834;2023-05-21T09:22:24;99881.34;;;21.64;82.92
9059;BME280;4564;42.034;25.834;2023-05-21T09:24:50;99879.97;;;21.71;84.12
9059;BME280;4564;42.034;25.834;2023-05-21T09:27:17;99873.22;;;22.14;82.29
9059;BME280;4564;42.034;25.834;2023-05-21T09:29:43;99880.41;;;22.26;81.82
9059;BME280;4564;42.034;25.834;2023-05-21T09:32:10;99876.00;;;22.25;80.31
9059;BME280;4564;42.034;25.834;2023-05-21T09:34:37;99881.56;;;22.60;79.28
9059;BME280;4564;42.034;25.834;2023-05-21T09:37:04;99879.66;;;22.76;77.33
9059;BME280;4564;42.034;25.834;2023-05-21T09:39:33;99884.88;;;23.02;76.72
9059;BME280;4564;42.034;25.834;2023-05-21T09:41:59;99881.03;;;22.93;75.90
9059;BME280;4564;42.034;25.834;2023-05-21T09:44:26;99885.94;;;23.22;74.31
9059;BME280;4564;42.034;25.834;2023-05-21T09:46:55;99883.22;;;23.12;74.51
9059;BME280;4564;42.034;25.834;2023-05-21T09:49:23;99887.06;;;23.26;73.59
9059;BME280;4564;42.034;25.834;2023-05-21T09:51:53;99885.91;;;23.42;72.54
9059;BME280;4564;42.034;25.834;2023-05-21T09:54:20;99883.19;;;23.22;70.54
9059;BME280;4564;42.034;25.834;2023-05-21T09:56:48;99880.72;;;23.20;71.58
9059;BME280;4564;42.034;25.834;2023-05-21T09:59:14;99889.31;;;23.14;71.77
9059;BME280;4564;42.034;25.834;2023-05-21T10:01:41;99889.28;;;23.19;70.46
9059;BME280;4564;42.034;25.834;2023-05-21T10:04:08;99892.56;;;23.41;72.14
9059;BME280;4564;42.034;25.834;2023-05-21T10:06:36;99891.72;;;23.51;69.74
9059;BME280;4564;42.034;25.834;2023-05-21T10:09:04;99887.72;;;23.82;70.02
9059;BME280;4564;42.034;25.834;2023-05-21T10:11:32;99888.19;;;23.99;68.49
9059;BME280;4564;42.034;25.834;2023-05-21T10:14:04;99885.16;;;23.96;69.08
9059;BME280;4564;42.034;25.834;2023-05-21T10:16:31;99882.91;;;24.47;68.98
9059;BME280;4564;42.034;25.834;2023-05-21T10:18:58;99894.38;;;25.08;68.70
9059;BME280;4564;42.034;25.834;2023-05-21T10:21:25;99893.78;;;25.11;69.06
9059;BME280;4564;42.034;25.834;2023-05-21T10:23:52;99892.28;;;25.47;68.38
9059;BME280;4564;42.034;25.834;2023-05-21T10:26:20;99894.19;;;25.52;68.53
9059;BME280;4564;42.034;25.834;2023-05-21T10:28:47;99883.88;;;25.29;68.94
9059;BME280;4564;42.034;25.834;2023-05-21T10:31:16;99878.06;;;25.49;69.39
9059;BME280;4564;42.034;25.834;2023-05-21T10:33:43;99881.88;;;25.82;68.58
9059;BME280;4564;42.034;25.834;2023-05-21T10:36:10;99874.97;;;25.98;67.14
9059;BME280;4564;42.034;25.834;2023-05-21T10:38:37;99878.56;;;26.41;67.65
9059;BME280;4564;42.034;25.834;2023-05-21T10:41:04;99877.22;;;26.90;63.64
9059;BME280;4564;42.034;25.834;2023-05-21T10:43:40;99879.09;;;26.94;61.24
9059;BME280;4564;42.034;25.834;2023-05-21T10:46:15;99877.28;;;27.03;60.67
9059;BME280;4564;42.034;25.834;2023-05-21T10:48:54;99883.97;;;27.02;58.44
9059;BME280;4564;42.034;25.834;2023-05-21T10:51:23;99872.69;;;26.24;59.92
9059;BME280;4564;42.034;25.834;2023-05-21T10:53:55;99873.97;;;26.50;62.23
9059;BME280;4564;42.034;25.834;2023-05-21T10:56:27;99873.53;;;26.76;60.68
9059;BME280;4564;42.034;25.834;2023-05-21T11:01:45;99883.63;;;27.36;57.03
9059;BME280;4564;42.034;25.834;2023-05-21T11:04:15;99876.19;;;27.45;58.29
9059;BME280;4564;42.034;25.834;2023-05-21T11:06:45;99884.75;;;27.35;58.51
9059;BME280;4564;42.034;25.834;2023-05-21T11:09:12;99873.66;;;27.17;59.30
9059;BME280;4564;42.034;25.834;2023-05-21T11:11:40;99878.22;;;27.12;58.18
9059;BME280;4564;42.034;25.834;2023-05-21T11:14:29;99867.41;;;26.60;59.19
9059;BME280;4564;42.034;25.834;2023-05-21T11:16:59;99870.69;;;26.81;59.42
9059;BME280;4564;42.034;25.834;2023-05-21T11:19:37;99877.25;;;26.71;58.61
9059;BME280;4564;42.034;25.834;2023-05-21T11:22:08;99877.63;;;26.64;60.28
9059;BME280;4564;42.034;25.834;2023-05-21T11:24:36;99872.81;;;26.70;61.29
9059;BME280;4564;42.034;25.834;2023-05-21T11:27:03;99872.22;;;26.54;61.69
9059;BME280;4564;42.034;25.834;2023-05-21T11:29:43;99864.31;;;26.61;59.83
9059;BME280;4564;42.034;25.834;2023-05-21T11:32:11;99869.06;;;26.61;48.80
9059;BME280;4564;42.034;25.834;2023-05-21T11:34:40;99862.13;;;26.58;53.08
9059;BME280;4564;42.034;25.834;2023-05-21T11:42:37;99862.81;;;25.94;54.47
9059;BME280;4564;42.034;25.834;2023-05-21T11:45:07;99866.72;;;25.93;50.07
9059;BME280;4564;42.034;25.834;2023-05-21T11:47:33;99870.53;;;25.31;49.56
9059;BME280;4564;42.034;25.834;2023-05-21T11:50:02;99870.81;;;25.00;50.57
9059;BME280;4564;42.034;25.834;2023-05-21T11:52:29;99866.69;;;24.64;51.75
9059;BME280;4564;42.034;25.834;2023-05-21T11:54:57;99865.53;;;24.36;52.33
9059;BME280;4564;42.034;25.834;2023-05-21T11:57:25;99853.16;;;24.23;53.13
9059;BME280;4564;42.034;25.834;2023-05-21T11:59:54;99850.09;;;24.20;53.35
9059;BME280;4564;42.034;25.834;2023-05-21T12:02:23;99849.59;;;24.13;54.06
9059;BME280;4564;42.034;25.834;2023-05-21T12:04:50;99846.25;;;24.11;54.14
9059;BME280;4564;42.034;25.834;2023-05-21T12:07:18;99849.66;;;23.98;54.26
9059;BME280;4564;42.034;25.834;2023-05-21T12:09:46;99847.50;;;23.90;54.23
9059;BME280;4564;42.034;25.834;2023-05-21T12:12:13;99841.38;;;23.93;54.02
9059;BME280;4564;42.034;25.834;2023-05-21T12:14:42;99839.47;;;23.88;53.44
9059;BME280;4564;42.034;25.834;2023-05-21T12:17:09;99837.47;;;23.99;52.88
9059;BME280;4564;42.034;25.834;2023-05-21T12:19:37;99832.16;;;24.07;54.78
9059;BME280;4564;42.034;25.834;2023-05-21T12:22:04;99832.91;;;24.23;55.21
9059;BME280;4564;42.034;25.834;2023-05-21T12:24:33;99827.44;;;24.47;55.57
9059;BME280;4564;42.034;25.834;2023-05-21T12:27:00;99835.50;;;24.77;55.54
9059;BME280;4564;42.034;25.834;2023-05-21T12:29:28;99828.28;;;25.05;52.87
9059;BME280;4564;42.034;25.834;2023-05-21T12:31:58;99826.28;;;25.11;52.44
9059;BME280;4564;42.034;25.834;2023-05-21T12:34:42;99823.69;;;25.19;50.17
9059;BME280;4564;42.034;25.834;2023-05-21T12:37:10;99822.47;;;25.30;51.51
9059;BME280;4564;42.034;25.834;2023-05-21T12:39:40;99817.69;;;25.36;50.33
9059;BME280;4564;42.034;25.834;2023-05-21T12:42:08;99823.59;;;25.29;50.94
9059;BME280;4564;42.034;25.834;2023-05-21T12:44:36;99812.81;;;25.23;49.16
9059;BME280;4564;42.034;25.834;2023-05-21T12:47:03;99812.81;;;25.23;51.85
9059;BME280;4564;42.034;25.834;2023-05-21T12:49:31;99806.38;;;25.27;50.96
9059;BME280;4564;42.034;25.834;2023-05-21T12:51:58;99798.94;;;25.23;51.42
9059;BME280;4564;42.034;25.834;2023-05-21T12:54:27;99791.41;;;25.23;50.72
9059;BME280;4564;42.034;25.834;2023-05-21T12:56:55;99802.19;;;25.06;49.90
9059;BME280;4564;42.034;25.834;2023-05-21T12:59:22;99799.00;;;24.94;47.69
9059;BME280;4564;42.034;25.834;2023-05-21T13:01:48;99798.72;;;24.90;49.33
9059;BME280;4564;42.034;25.834;2023-05-21T13:04:18;99799.41;;;24.77;48.29
9059;BME280;4564;42.034;25.834;2023-05-21T13:06:44;99795.75;;;24.82;49.13
9059;BME280;4564;42.034;25.834;2023-05-21T13:09:11;99800.16;;;24.88;48.08
9059;BME280;4564;42.034;25.834;2023-05-21T13:11:37;99795.44;;;24.83;47.85
9059;BME280;4564;42.034;25.834;2023-05-21T13:14:05;99792.16;;;24.81;48.15
9059;BME280;4564;42.034;25.834;2023-05-21T13:16:32;99787.38;;;24.87;49.08
9059;BME280;4564;42.034;25.834;2023-05-21T13:18:58;99788.06;;;25.02;48.90
9059;BME280;4564;42.034;25.834;2023-05-21T13:21:25;99788.09;;;25.21;49.17